sensor_id;sensor_type;location;lat;lon;timestamp;P1;durP1;ratioP1;P2;durP2;ratioP2
4464;SDS011;2245;48.136;13.428;2022-07-06T00:02:19;4.87;;;2.53;;
4464;SDS011;2245;48.136;13.428;2022-07-06T00:04:46;2.63;;;2.43;;
4464;SDS011;2245;48.136;13.428;2022-07-06T00:07:13;2.57;;;2.47;;
4464;SDS011;2245;48.136;13.428;2022-07-06T00:09:41;2.93;;;2.40;;
4464;SDS011;2245;48.136;13.428;2022-07-06T00:12:08;2.70;;;2.50;;
4464;SDS011;2245;48.136;13.428;2022-07-06T00:14:35;2.70;;;2.60;;
4464;SDS011;2245;48.136;13.428;2022-07-06T00:17:02;3.03;;;2.57;;
4464;SDS011;2245;48.136;13.428;2022-07-06T00:19:29;3.03;;;2.53;;
4464;SDS011;2245;48.136;13.428;2022-07-06T00:21:56;4.13;;;2.50;;
4464;SDS011;2245;48.136;13.428;2022-07-06T00:24:23;3.00;;;2.70;;
4464;SDS011;2245;48.136;13.428;2022-07-06T00:26:51;3.93;;;2.80;;
4464;SDS011;2245;48.136;13.428;2022-07-06T00:29:18;2.73;;;2.33;;
4464;SDS011;2245;48.136;13.428;2022-07-06T00:31:45;2.23;;;2.13;;
4464;SDS011;2245;48.136;13.428;2022-07-06T00:34:12;2.43;;;2.30;;
4464;SDS011;2245;48.136;13.428;2022-07-06T00:36:39;2.73;;;2.53;;
4464;SDS011;2245;48.136;13.428;2022-07-06T00:39:06;2.50;;;2.30;;
4464;SDS011;2245;48.136;13.428;2022-07-06T00:41:33;11.30;;;2.40;;
4464;SDS011;2245;48.136;13.428;2022-07-06T00:44:04;2.37;;;2.17;;
4464;SDS011;2245;48.136;13.428;2022-07-06T00:46:33;2.90;;;2.60;;
4464;SDS011;2245;48.136;13.428;2022-07-06T00:49:00;2.77;;;2.57;;
4464;SDS011;2245;48.136;13.428;2022-07-06T00:51:28;4.83;;;2.70;;
4464;SDS011;2245;48.136;13.428;2022-07-06T00:53:56;3.00;;;2.80;;
4464;SDS011;2245;48.136;13.428;2022-07-06T00:56:25;2.40;;;2.30;;
4464;SDS011;2245;48.136;13.428;2022-07-06T00:58:52;4.00;;;2.67;;
4464;SDS011;2245;48.136;13.428;2022-07-06T01:01:20;4.53;;;2.63;;
4464;SDS011;2245;48.136;13.428;2022-07-06T01:03:47;3.63;;;2.30;;
4464;SDS011;2245;48.136;13.428;2022-07-06T01:06:14;3.20;;;2.60;;
4464;SDS011;2245;48.136;13.428;2022-07-06T01:08:41;3.80;;;2.53;;
4464;SDS011;2245;48.136;13.428;2022-07-06T01:11:08;7.90;;;2.40;;
4464;SDS011;2245;48.136;13.428;2022-07-06T01:13:37;4.30;;;2.70;;
4464;SDS011;2245;48.136;13.428;2022-07-06T01:16:04;2.73;;;2.53;;
4464;SDS011;2245;48.136;13.428;2022-07-06T01:18:33;3.07;;;2.90;;
4464;SDS011;2245;48.136;13.428;2022-07-06T01:21:08;2.30;;;2.20;;
4464;SDS011;2245;48.136;13.428;2022-07-06T01:23:39;2.87;;;2.60;;
4464;SDS011;2245;48.136;13.428;2022-07-06T01:26:08;3.10;;;2.53;;
4464;SDS011;2245;48.136;13.428;2022-07-06T01:28:36;2.93;;;2.40;;
4464;SDS011;2245;48.136;13.428;2022-07-06T01:31:03;2.80;;;2.60;;
4464;SDS011;2245;48.136;13.428;2022-07-06T01:33:30;2.90;;;2.77;;
4464;SDS011;2245;48.136;13.428;2022-07-06T01:35:57;3.00;;;2.60;;
4464;SDS011;2245;48.136;13.428;2022-07-06T01:38:25;3.40;;;2.70;;
4464;SDS011;2245;48.136;13.428;2022-07-06T01:40:52;2.27;;;2.17;;
4464;SDS011;2245;48.136;13.428;2022-07-06T01:43:19;6.40;;;2.63;;
4464;SDS011;2245;48.136;13.428;2022-07-06T01:45:46;3.27;;;2.73;;
4464;SDS011;2245;48.136;13.428;2022-07-06T01:48:13;2.97;;;2.77;;
4464;SDS011;2245;48.136;13.428;2022-07-06T01:50:39;4.00;;;3.03;;
4464;SDS011;2245;48.136;13.428;2022-07-06T01:53:06;3.07;;;2.77;;
4464;SDS011;2245;48.136;13.428;2022-07-06T01:55:34;3.23;;;2.97;;
4464;SDS011;2245;48.136;13.428;2022-07-06T01:58:01;3.13;;;2.93;;
4464;SDS011;2245;48.136;13.428;2022-07-06T02:00:28;2.73;;;2.50;;
4464;SDS011;2245;48.136;13.428;2022-07-06T02:02:55;3.73;;;2.63;;
4464;SDS011;2245;48.136;13.428;2022-07-06T02:05:22;2.53;;;2.33;;
4464;SDS011;2245;48.136;13.428;2022-07-06T02:07:48;3.10;;;2.90;;
4464;SDS011;2245;48.136;13.428;2022-07-06T02:10:15;2.47;;;2.27;;
4464;SDS011;2245;48.136;13.428;2022-07-06T02:12:44;6.53;;;2.37;;
4464;SDS011;2245;48.136;13.428;2022-07-06T02:15:11;2.77;;;2.57;;
4464;SDS011;2245;48.136;13.428;2022-07-06T02:17:38;3.23;;;2.90;;
4464;SDS011;2245;48.136;13.428;2022-07-06T02:20:05;5.60;;;2.73;;
4464;SDS011;2245;48.136;13.428;2022-07-06T02:22:32;2.80;;;2.60;;
4464;SDS011;2245;48.136;13.428;2022-07-06T02:24:59;2.80;;;2.60;;
4464;SDS011;2245;48.136;13.428;2022-07-06T02:27:26;2.77;;;2.57;;
4464;SDS011;2245;48.136;13.428;2022-07-06T02:29:54;2.73;;;2.50;;
4464;SDS011;2245;48.136;13.428;2022-07-06T02:32:21;2.60;;;2.40;;
4464;SDS011;2245;48.136;13.428;2022-07-06T02:34:48;2.80;;;2.70;;
4464;SDS011;2245;48.136;13.428;2022-07-06T02:37:15;2.80;;;2.70;;
4464;SDS011;2245;48.136;13.428;2022-07-06T02:39:42;2.60;;;2.40;;
4464;SDS011;2245;48.136;13.428;2022-07-06T02:42:08;5.40;;;2.80;;
4464;SDS011;2245;48.136;13.428;2022-07-06T02:44:35;2.90;;;2.70;;
4464;SDS011;2245;48.136;13.428;2022-07-06T02:47:04;3.20;;;3.00;;
4464;SDS011;2245;48.136;13.428;2022-07-06T02:49:30;2.73;;;2.20;;
4464;SDS011;2245;48.136;13.428;2022-07-06T02:51:57;2.63;;;2.50;;
4464;SDS011;2245;48.136;13.428;2022-07-06T02:54:24;2.67;;;2.57;;
4464;SDS011;2245;48.136;13.428;2022-07-06T02:56:51;2.60;;;2.50;;
4464;SDS011;2245;48.136;13.428;2022-07-06T02:59:18;3.10;;;2.90;;
4464;SDS011;2245;48.136;13.428;2022-07-06T03:01:45;3.13;;;2.80;;
4464;SDS011;2245;48.136;13.428;2022-07-06T03:04:13;2.97;;;2.77;;
4464;SDS011;2245;48.136;13.428;2022-07-06T03:06:40;3.43;;;2.90;;
4464;SDS011;2245;48.136;13.428;2022-07-06T03:09:07;2.83;;;2.63;;
4464;SDS011;2245;48.136;13.428;2022-07-06T03:11:34;2.23;;;2.13;;
4464;SDS011;2245;48.136;13.428;2022-07-06T03:14:02;2.83;;;2.73;;
4464;SDS011;2245;48.136;13.428;2022-07-06T03:16:29;2.93;;;2.80;;
4464;SDS011;2245;48.136;13.428;2022-07-06T03:18:56;2.97;;;2.57;;
4464;SDS011;2245;48.136;13.428;2022-07-06T03:21:24;5.50;;;2.43;;
4464;SDS011;2245;48.136;13.428;2022-07-06T03:23:51;3.83;;;3.63;;
4464;SDS011;2245;48.136;13.428;2022-07-06T03:26:18;3.90;;;3.40;;
4464;SDS011;2245;48.136;13.428;2022-07-06T03:28:45;2.60;;;2.40;;
4464;SDS011;2245;48.136;13.428;2022-07-06T03:31:12;5.33;;;3.57;;
4464;SDS011;2245;48.136;13.428;2022-07-06T03:33:39;3.27;;;3.07;;
4464;SDS011;2245;48.136;13.428;2022-07-06T03:36:06;4.60;;;2.60;;
4464;SDS011;2245;48.136;13.428;2022-07-06T03:38:35;5.73;;;3.40;;
4464;SDS011;2245;48.136;13.428;2022-07-06T03:41:02;4.13;;;3.00;;
4464;SDS011;2245;48.136;13.428;2022-07-06T03:43:29;4.27;;;3.23;;
4464;SDS011;2245;48.136;13.428;2022-07-06T03:45:55;3.60;;;2.70;;
4464;SDS011;2245;48.136;13.428;2022-07-06T03:48:22;7.93;;;3.00;;
4464;SDS011;2245;48.136;13.428;2022-07-06T03:50:49;3.60;;;3.10;;
4464;SDS011;2245;48.136;13.428;2022-07-06T03:53:16;4.10;;;3.20;;
4464;SDS011;2245;48.136;13.428;2022-07-06T03:55:44;3.23;;;2.93;;
4464;SDS011;2245;48.136;13.428;2022-07-06T03:58:32;3.60;;;3.30;;
4464;SDS011;2245;48.136;13.428;2022-07-06T04:00:59;3.40;;;3.10;;
4464;SDS011;2245;48.136;13.428;2022-07-06T04:03:25;3.20;;;3.00;;
4464;SDS011;2245;48.136;13.428;2022-07-06T04:05:52;4.40;;;3.27;;
4464;SDS011;2245;48.136;13.428;2022-07-06T04:08:19;2.93;;;2.73;;
4464;SDS011;2245;48.136;13.428;2022-07-06T04:10:47;3.63;;;2.90;;
4464;SDS011;2245;48.136;13.428;2022-07-06T04:13:14;4.20;;;3.40;;
4464;SDS011;2245;48.136;13.428;2022-07-06T04:15:41;3.30;;;3.00;;
4464;SDS011;2245;48.136;13.428;2022-07-06T04:18:08;3.60;;;2.80;;
4464;SDS011;2245;48.136;13.428;2022-07-06T04:20:35;2.77;;;2.57;;
4464;SDS011;2245;48.136;13.428;2022-07-06T04:23:02;4.57;;;3.53;;
4464;SDS011;2245;48.136;13.428;2022-07-06T04:25:28;2.80;;;2.60;;
4464;SDS011;2245;48.136;13.428;2022-07-06T04:27:57;3.73;;;2.77;;
4464;SDS011;2245;48.136;13.428;2022-07-06T04:30:24;4.90;;;3.60;;
4464;SDS011;2245;48.136;13.428;2022-07-06T04:32:50;3.60;;;2.70;;
4464;SDS011;2245;48.136;13.428;2022-07-06T04:35:17;3.97;;;3.53;;
4464;SDS011;2245;48.136;13.428;2022-07-06T04:37:44;3.90;;;3.37;;
4464;SDS011;2245;48.136;13.428;2022-07-06T04:40:12;3.17;;;2.97;;
4464;SDS011;2245;48.136;13.428;2022-07-06T04:42:39;2.90;;;2.70;;
4464;SDS011;2245;48.136;13.428;2022-07-06T04:45:08;4.37;;;2.83;;
4464;SDS011;2245;48.136;13.428;2022-07-06T04:47:35;2.87;;;2.70;;
4464;SDS011;2245;48.136;13.428;2022-07-06T04:50:02;2.80;;;2.37;;
4464;SDS011;2245;48.136;13.428;2022-07-06T04:52:30;1.77;;;1.77;;
4464;SDS011;2245;48.136;13.428;2022-07-06T04:54:57;13.03;;;2.77;;
4464;SDS011;2245;48.136;13.428;2022-07-06T04:57:23;15.13;;;1.93;;
4464;SDS011;2245;48.136;13.428;2022-07-06T04:59:51;2.93;;;1.77;;
4464;SDS011;2245;48.136;13.428;2022-07-06T05:02:19;3.40;;;1.70;;
4464;SDS011;2245;48.136;13.428;2022-07-06T05:04:46;2.60;;;2.20;;
4464;SDS011;2245;48.136;13.428;2022-07-06T05:07:13;1.57;;;1.50;;
4464;SDS011;2245;48.136;13.428;2022-07-06T05:09:40;2.33;;;2.10;;
4464;SDS011;2245;48.136;13.428;2022-07-06T05:12:07;1.33;;;1.30;;
4464;SDS011;2245;48.136;13.428;2022-07-06T05:14:35;2.87;;;1.80;;
4464;SDS011;2245;48.136;13.428;2022-07-06T05:17:02;2.07;;;1.97;;
4464;SDS011;2245;48.136;13.428;2022-07-06T05:19:31;3.70;;;2.30;;
4464;SDS011;2245;48.136;13.428;2022-07-06T05:21:57;2.75;;;1.60;;
4464;SDS011;2245;48.136;13.428;2022-07-06T05:24:24;3.22;;;1.85;;
4464;SDS011;2245;48.136;13.428;2022-07-06T05:26:51;1.80;;;1.70;;
4464;SDS011;2245;48.136;13.428;2022-07-06T05:29:18;2.03;;;1.73;;
4464;SDS011;2245;48.136;13.428;2022-07-06T05:31:45;5.60;;;1.55;;
4464;SDS011;2245;48.136;13.428;2022-07-06T05:34:11;1.58;;;1.48;;
4464;SDS011;2245;48.136;13.428;2022-07-06T05:36:40;7.07;;;1.40;;
4464;SDS011;2245;48.136;13.428;2022-07-06T05:39:07;4.38;;;1.70;;
4464;SDS011;2245;48.136;13.428;2022-07-06T05:41:33;2.60;;;1.90;;
4464;SDS011;2245;48.136;13.428;2022-07-06T05:44:00;3.33;;;1.90;;
4464;SDS011;2245;48.136;13.428;2022-07-06T05:46:27;3.83;;;1.27;;
4464;SDS011;2245;48.136;13.428;2022-07-06T05:48:54;1.90;;;1.65;;
4464;SDS011;2245;48.136;13.428;2022-07-06T05:51:45;1.50;;;1.30;;
4464;SDS011;2245;48.136;13.428;2022-07-06T05:54:12;5.55;;;1.60;;
4464;SDS011;2245;48.136;13.428;2022-07-06T05:56:39;4.10;;;1.60;;
4464;SDS011;2245;48.136;13.428;2022-07-06T05:59:05;5.82;;;1.60;;
4464;SDS011;2245;48.136;13.428;2022-07-06T06:01:32;7.22;;;1.98;;
4464;SDS011;2245;48.136;13.428;2022-07-06T06:03:59;2.03;;;1.83;;
4464;SDS011;2245;48.136;13.428;2022-07-06T06:06:26;6.60;;;1.50;;
4464;SDS011;2245;48.136;13.428;2022-07-06T06:08:57;4.22;;;1.75;;
4464;SDS011;2245;48.136;13.428;2022-07-06T06:11:24;2.97;;;2.78;;
4464;SDS011;2245;48.136;13.428;2022-07-06T06:13:51;2.45;;;2.20;;
4464;SDS011;2245;48.136;13.428;2022-07-06T06:16:17;1.60;;;1.50;;
4464;SDS011;2245;48.136;13.428;2022-07-06T06:18:44;1.67;;;1.58;;
4464;SDS011;2245;48.136;13.428;2022-07-06T06:21:11;1.25;;;1.15;;
4464;SDS011;2245;48.136;13.428;2022-07-06T06:23:38;3.08;;;1.58;;
4464;SDS011;2245;48.136;13.428;2022-07-06T06:26:06;1.10;;;1.10;;
4464;SDS011;2245;48.136;13.428;2022-07-06T06:28:33;1.40;;;1.40;;
4464;SDS011;2245;48.136;13.428;2022-07-06T06:31:01;2.95;;;1.40;;
4464;SDS011;2245;48.136;13.428;2022-07-06T06:33:28;1.90;;;1.52;;
4464;SDS011;2245;48.136;13.428;2022-07-06T06:35:55;2.47;;;1.70;;
4464;SDS011;2245;48.136;13.428;2022-07-06T06:38:22;1.30;;;1.20;;
4464;SDS011;2245;48.136;13.428;2022-07-06T06:40:51;1.40;;;1.30;;
4464;SDS011;2245;48.136;13.428;2022-07-06T06:43:20;6.50;;;1.98;;
4464;SDS011;2245;48.136;13.428;2022-07-06T06:45:46;1.88;;;1.77;;
4464;SDS011;2245;48.136;13.428;2022-07-06T06:48:13;2.55;;;1.50;;
4464;SDS011;2245;48.136;13.428;2022-07-06T06:50:40;1.42;;;1.40;;
4464;SDS011;2245;48.136;13.428;2022-07-06T06:53:07;4.60;;;1.60;;
4464;SDS011;2245;48.136;13.428;2022-07-06T06:55:34;1.50;;;1.40;;
4464;SDS011;2245;48.136;13.428;2022-07-06T06:58:00;1.60;;;1.50;;
4464;SDS011;2245;48.136;13.428;2022-07-06T07:00:29;1.20;;;1.20;;
4464;SDS011;2245;48.136;13.428;2022-07-06T07:02:55;2.05;;;1.60;;
4464;SDS011;2245;48.136;13.428;2022-07-06T07:05:22;7.80;;;1.85;;
4464;SDS011;2245;48.136;13.428;2022-07-06T07:07:49;1.75;;;1.33;;
4464;SDS011;2245;48.136;13.428;2022-07-06T07:10:16;2.00;;;1.95;;
4464;SDS011;2245;48.136;13.428;2022-07-06T07:12:44;5.93;;;1.65;;
4464;SDS011;2245;48.136;13.428;2022-07-06T07:15:11;2.80;;;1.52;;
4464;SDS011;2245;48.136;13.428;2022-07-06T07:17:40;1.70;;;1.67;;
4464;SDS011;2245;48.136;13.428;2022-07-06T07:20:07;1.40;;;1.25;;
4464;SDS011;2245;48.136;13.428;2022-07-06T07:22:35;2.38;;;1.60;;
4464;SDS011;2245;48.136;13.428;2022-07-06T07:25:02;3.60;;;2.05;;
4464;SDS011;2245;48.136;13.428;2022-07-06T07:27:29;1.33;;;1.23;;
4464;SDS011;2245;48.136;13.428;2022-07-06T07:29:56;1.85;;;1.70;;
4464;SDS011;2245;48.136;13.428;2022-07-06T07:32:23;2.33;;;1.42;;
4464;SDS011;2245;48.136;13.428;2022-07-06T07:34:51;1.80;;;1.70;;
4464;SDS011;2245;48.136;13.428;2022-07-06T07:37:18;1.33;;;1.27;;
4464;SDS011;2245;48.136;13.428;2022-07-06T07:39:44;2.40;;;2.10;;
4464;SDS011;2245;48.136;13.428;2022-07-06T07:42:11;4.10;;;1.90;;
4464;SDS011;2245;48.136;13.428;2022-07-06T07:44:38;1.90;;;1.80;;
4464;SDS011;2245;48.136;13.428;2022-07-06T07:47:06;2.47;;;2.28;;
4464;SDS011;2245;48.136;13.428;2022-07-06T07:49:33;1.63;;;1.60;;
4464;SDS011;2245;48.136;13.428;2022-07-06T07:52:01;7.07;;;1.55;;
4464;SDS011;2245;48.136;13.428;2022-07-06T07:54:28;1.63;;;1.52;;
4464;SDS011;2245;48.136;13.428;2022-07-06T07:56:55;1.50;;;1.40;;
4464;SDS011;2245;48.136;13.428;2022-07-06T07:59:22;1.85;;;1.65;;
4464;SDS011;2245;48.136;13.428;2022-07-06T08:01:48;4.45;;;1.83;;
4464;SDS011;2245;48.136;13.428;2022-07-06T08:04:15;1.50;;;1.35;;
4464;SDS011;2245;48.136;13.428;2022-07-06T08:06:42;2.58;;;1.30;;
4464;SDS011;2245;48.136;13.428;2022-07-06T08:09:11;1.63;;;1.48;;
4464;SDS011;2245;48.136;13.428;2022-07-06T08:11:38;7.82;;;1.90;;
4464;SDS011;2245;48.136;13.428;2022-07-06T08:14:05;2.65;;;1.88;;
4464;SDS011;2245;48.136;13.428;2022-07-06T08:16:31;2.42;;;1.70;;
4464;SDS011;2245;48.136;13.428;2022-07-06T08:18:58;1.38;;;1.38;;
4464;SDS011;2245;48.136;13.428;2022-07-06T08:21:25;5.03;;;2.25;;
4464;SDS011;2245;48.136;13.428;2022-07-06T08:23:52;2.47;;;1.75;;
4464;SDS011;2245;48.136;13.428;2022-07-06T08:26:21;3.33;;;1.52;;
4464;SDS011;2245;48.136;13.428;2022-07-06T08:28:48;1.83;;;1.73;;
4464;SDS011;2245;48.136;13.428;2022-07-06T08:31:15;2.55;;;2.08;;
4464;SDS011;2245;48.136;13.428;2022-07-06T08:33:42;1.65;;;1.55;;
4464;SDS011;2245;48.136;13.428;2022-07-06T08:36:09;2.42;;;2.22;;
4464;SDS011;2245;48.136;13.428;2022-07-06T08:38:36;7.97;;;2.45;;
4464;SDS011;2245;48.136;13.428;2022-07-06T08:41:03;2.45;;;1.67;;
4464;SDS011;2245;48.136;13.428;2022-07-06T08:43:32;4.18;;;1.58;;
4464;SDS011;2245;48.136;13.428;2022-07-06T08:45:59;5.80;;;2.30;;
4464;SDS011;2245;48.136;13.428;2022-07-06T08:48:26;2.17;;;1.90;;
4464;SDS011;2245;48.136;13.428;2022-07-06T08:50:54;3.85;;;2.05;;
4464;SDS011;2245;48.136;13.428;2022-07-06T08:53:21;2.53;;;2.13;;
4464;SDS011;2245;48.136;13.428;2022-07-06T08:55:49;1.70;;;1.65;;
4464;SDS011;2245;48.136;13.428;2022-07-06T08:58:17;3.08;;;1.60;;
4464;SDS011;2245;48.136;13.428;2022-07-06T09:00:45;2.42;;;2.22;;
4464;SDS011;2245;48.136;13.428;2022-07-06T09:03:12;3.72;;;1.65;;
4464;SDS011;2245;48.136;13.428;2022-07-06T09:05:40;1.40;;;1.30;;
4464;SDS011;2245;48.136;13.428;2022-07-06T09:08:07;2.17;;;1.83;;
4464;SDS011;2245;48.136;13.428;2022-07-06T09:10:34;5.25;;;2.45;;
4464;SDS011;2245;48.136;13.428;2022-07-06T09:13:03;2.35;;;2.15;;
4464;SDS011;2245;48.136;13.428;2022-07-06T09:15:30;1.65;;;1.55;;
4464;SDS011;2245;48.136;13.428;2022-07-06T09:17:59;6.85;;;2.00;;
4464;SDS011;2245;48.136;13.428;2022-07-06T09:20:26;3.35;;;3.05;;
4464;SDS011;2245;48.136;13.428;2022-07-06T09:22:57;8.80;;;1.95;;
4464;SDS011;2245;48.136;13.428;2022-07-06T09:25:24;2.47;;;2.25;;
4464;SDS011;2245;48.136;13.428;2022-07-06T09:27:52;4.43;;;2.10;;
4464;SDS011;2245;48.136;13.428;2022-07-06T09:30:19;3.78;;;2.00;;
4464;SDS011;2245;48.136;13.428;2022-07-06T09:32:49;3.70;;;1.92;;
4464;SDS011;2245;48.136;13.428;2022-07-06T09:35:21;1.80;;;1.70;;
4464;SDS011;2245;48.136;13.428;2022-07-06T09:37:59;1.63;;;1.42;;
4464;SDS011;2245;48.136;13.428;2022-07-06T09:40:30;1.80;;;1.55;;
4464;SDS011;2245;48.136;13.428;2022-07-06T09:43:07;10.23;;;2.53;;
4464;SDS011;2245;48.136;13.428;2022-07-06T09:45:35;5.53;;;5.22;;
4464;SDS011;2245;48.136;13.428;2022-07-06T09:48:07;1.70;;;1.70;;
4464;SDS011;2245;48.136;13.428;2022-07-06T09:50:39;3.20;;;2.00;;
4464;SDS011;2245;48.136;13.428;2022-07-06T09:53:08;2.30;;;2.10;;
4464;SDS011;2245;48.136;13.428;2022-07-06T09:55:36;5.60;;;2.60;;
4464;SDS011;2245;48.136;13.428;2022-07-06T09:58:03;6.83;;;1.90;;
4464;SDS011;2245;48.136;13.428;2022-07-06T10:00:30;3.00;;;2.80;;
4464;SDS011;2245;48.136;13.428;2022-07-06T10:02:57;6.40;;;2.13;;
4464;SDS011;2245;48.136;13.428;2022-07-06T10:05:25;2.13;;;2.03;;
4464;SDS011;2245;48.136;13.428;2022-07-06T10:07:57;2.50;;;2.27;;
4464;SDS011;2245;48.136;13.428;2022-07-06T10:10:26;2.53;;;2.33;;
4464;SDS011;2245;48.136;13.428;2022-07-06T10:12:55;3.37;;;2.30;;
4464;SDS011;2245;48.136;13.428;2022-07-06T10:15:23;3.90;;;2.27;;
4464;SDS011;2245;48.136;13.428;2022-07-06T10:17:52;2.37;;;2.17;;
4464;SDS011;2245;48.136;13.428;2022-07-06T10:20:19;3.83;;;2.20;;
4464;SDS011;2245;48.136;13.428;2022-07-06T10:22:47;4.37;;;2.67;;
4464;SDS011;2245;48.136;13.428;2022-07-06T10:25:16;3.90;;;2.33;;
4464;SDS011;2245;48.136;13.428;2022-07-06T10:27:44;9.57;;;2.47;;
4464;SDS011;2245;48.136;13.428;2022-07-06T10:30:12;2.50;;;2.30;;
4464;SDS011;2245;48.136;13.428;2022-07-06T10:32:39;6.13;;;2.30;;
4464;SDS011;2245;48.136;13.428;2022-07-06T10:35:08;2.43;;;2.23;;
4464;SDS011;2245;48.136;13.428;2022-07-06T10:37:35;10.43;;;2.37;;
4464;SDS011;2245;48.136;13.428;2022-07-06T10:40:03;2.60;;;2.40;;
4464;SDS011;2245;48.136;13.428;2022-07-06T10:42:50;3.03;;;1.77;;
4464;SDS011;2245;48.136;13.428;2022-07-06T10:48:25;2.67;;;2.50;;
4464;SDS011;2245;48.136;13.428;2022-07-06T10:51:00;2.30;;;2.10;;
4464;SDS011;2245;48.136;13.428;2022-07-06T10:53:30;2.40;;;2.20;;
4464;SDS011;2245;48.136;13.428;2022-07-06T10:56:00;4.13;;;2.10;;
4464;SDS011;2245;48.136;13.428;2022-07-06T10:58:38;3.10;;;2.83;;
4464;SDS011;2245;48.136;13.428;2022-07-06T11:01:07;5.53;;;3.07;;
4464;SDS011;2245;48.136;13.428;2022-07-06T11:03:37;6.20;;;3.30;;
4464;SDS011;2245;48.136;13.428;2022-07-06T11:06:06;6.60;;;3.30;;
4464;SDS011;2245;48.136;13.428;2022-07-06T11:08:42;5.10;;;3.70;;
4464;SDS011;2245;48.136;13.428;2022-07-06T11:11:12;2.67;;;2.47;;
4464;SDS011;2245;48.136;13.428;2022-07-06T11:13:43;2.73;;;2.40;;
4464;SDS011;2245;48.136;13.428;2022-07-06T11:16:14;7.43;;;2.67;;
4464;SDS011;2245;48.136;13.428;2022-07-06T11:18:45;5.30;;;2.70;;
4464;SDS011;2245;48.136;13.428;2022-07-06T11:21:22;3.77;;;2.60;;
4464;SDS011;2245;48.136;13.428;2022-07-06T11:23:50;3.20;;;2.50;;
4464;SDS011;2245;48.136;13.428;2022-07-06T11:26:17;3.00;;;2.70;;
4464;SDS011;2245;48.136;13.428;2022-07-06T11:28:50;2.90;;;2.63;;
4464;SDS011;2245;48.136;13.428;2022-07-06T11:31:18;7.20;;;2.57;;
4464;SDS011;2245;48.136;13.428;2022-07-06T11:33:47;3.20;;;2.10;;
4464;SDS011;2245;48.136;13.428;2022-07-06T11:36:15;4.43;;;2.37;;
4464;SDS011;2245;48.136;13.428;2022-07-06T11:38:43;3.53;;;1.83;;
4464;SDS011;2245;48.136;13.428;2022-07-06T11:41:10;5.47;;;2.63;;
4464;SDS011;2245;48.136;13.428;2022-07-06T11:43:39;7.00;;;2.40;;
4464;SDS011;2245;48.136;13.428;2022-07-06T11:46:26;6.10;;;1.97;;
4464;SDS011;2245;48.136;13.428;2022-07-06T11:48:55;5.03;;;2.60;;
4464;SDS011;2245;48.136;13.428;2022-07-06T11:51:23;4.80;;;2.63;;
4464;SDS011;2245;48.136;13.428;2022-07-06T11:53:52;12.00;;;3.53;;
4464;SDS011;2245;48.136;13.428;2022-07-06T11:56:20;7.53;;;4.87;;
4464;SDS011;2245;48.136;13.428;2022-07-06T11:58:50;4.27;;;3.13;;
4464;SDS011;2245;48.136;13.428;2022-07-06T12:01:18;3.00;;;2.70;;
4464;SDS011;2245;48.136;13.428;2022-07-06T12:03:47;8.17;;;2.77;;
4464;SDS011;2245;48.136;13.428;2022-07-06T12:06:14;2.60;;;2.40;;
4464;SDS011;2245;48.136;13.428;2022-07-06T12:08:44;5.30;;;3.30;;
4464;SDS011;2245;48.136;13.428;2022-07-06T12:11:19;3.30;;;2.27;;
4464;SDS011;2245;48.136;13.428;2022-07-06T12:13:47;3.37;;;2.37;;
4464;SDS011;2245;48.136;13.428;2022-07-06T12:16:14;10.03;;;2.13;;
4464;SDS011;2245;48.136;13.428;2022-07-06T12:18:42;3.90;;;2.13;;
4464;SDS011;2245;48.136;13.428;2022-07-06T12:21:12;2.27;;;2.17;;
4464;SDS011;2245;48.136;13.428;2022-07-06T12:23:42;6.83;;;2.50;;
4464;SDS011;2245;48.136;13.428;2022-07-06T12:26:09;1.80;;;1.70;;
4464;SDS011;2245;48.136;13.428;2022-07-06T12:28:37;11.73;;;2.40;;
4464;SDS011;2245;48.136;13.428;2022-07-06T12:31:04;5.60;;;2.43;;
4464;SDS011;2245;48.136;13.428;2022-07-06T12:33:31;6.50;;;1.90;;
4464;SDS011;2245;48.136;13.428;2022-07-06T12:36:07;5.20;;;2.50;;
4464;SDS011;2245;48.136;13.428;2022-07-06T12:38:42;7.90;;;2.57;;
4464;SDS011;2245;48.136;13.428;2022-07-06T12:41:11;9.70;;;2.60;;
4464;SDS011;2245;48.136;13.428;2022-07-06T12:43:42;2.10;;;2.00;;
4464;SDS011;2245;48.136;13.428;2022-07-06T12:46:27;3.33;;;2.40;;
4464;SDS011;2245;48.136;13.428;2022-07-06T12:48:56;18.13;;;2.60;;
4464;SDS011;2245;48.136;13.428;2022-07-06T12:51:23;2.00;;;1.87;;
4464;SDS011;2245;48.136;13.428;2022-07-06T12:53:56;1.83;;;1.73;;
4464;SDS011;2245;48.136;13.428;2022-07-06T12:59:27;5.50;;;2.23;;
4464;SDS011;2245;48.136;13.428;2022-07-06T13:01:55;2.20;;;2.10;;
4464;SDS011;2245;48.136;13.428;2022-07-06T13:04:22;4.73;;;2.50;;
4464;SDS011;2245;48.136;13.428;2022-07-06T13:06:49;4.57;;;2.33;;
4464;SDS011;2245;48.136;13.428;2022-07-06T13:09:18;8.70;;;2.60;;
4464;SDS011;2245;48.136;13.428;2022-07-06T13:11:46;5.17;;;2.60;;
4464;SDS011;2245;48.136;13.428;2022-07-06T13:14:13;2.50;;;2.30;;
4464;SDS011;2245;48.136;13.428;2022-07-06T13:16:40;2.20;;;2.10;;
4464;SDS011;2245;48.136;13.428;2022-07-06T13:19:07;2.17;;;1.97;;
4464;SDS011;2245;48.136;13.428;2022-07-06T13:21:34;4.00;;;2.57;;
4464;SDS011;2245;48.136;13.428;2022-07-06T13:24:02;1.80;;;1.70;;
4464;SDS011;2245;48.136;13.428;2022-07-06T13:26:30;2.60;;;2.40;;
4464;SDS011;2245;48.136;13.428;2022-07-06T13:28:58;3.13;;;2.27;;
4464;SDS011;2245;48.136;13.428;2022-07-06T13:31:25;7.77;;;2.63;;
4464;SDS011;2245;48.136;13.428;2022-07-06T13:33:53;9.00;;;3.53;;
4464;SDS011;2245;48.136;13.428;2022-07-06T13:36:20;3.90;;;2.50;;
4464;SDS011;2245;48.136;13.428;2022-07-06T13:38:46;6.23;;;2.63;;
4464;SDS011;2245;48.136;13.428;2022-07-06T13:41:14;3.20;;;2.80;;
4464;SDS011;2245;48.136;13.428;2022-07-06T13:43:42;3.23;;;2.40;;
4464;SDS011;2245;48.136;13.428;2022-07-06T13:46:09;3.00;;;2.70;;
4464;SDS011;2245;48.136;13.428;2022-07-06T13:48:36;3.70;;;2.63;;
4464;SDS011;2245;48.136;13.428;2022-07-06T13:51:03;4.77;;;2.90;;
4464;SDS011;2245;48.136;13.428;2022-07-06T13:53:30;4.03;;;2.50;;
4464;SDS011;2245;48.136;13.428;2022-07-06T13:55:57;4.10;;;2.50;;
4464;SDS011;2245;48.136;13.428;2022-07-06T13:58:24;7.90;;;4.00;;
4464;SDS011;2245;48.136;13.428;2022-07-06T14:00:53;5.63;;;2.83;;
4464;SDS011;2245;48.136;13.428;2022-07-06T14:03:20;2.93;;;2.67;;
4464;SDS011;2245;48.136;13.428;2022-07-06T14:05:53;4.67;;;2.50;;
4464;SDS011;2245;48.136;13.428;2022-07-06T14:08:21;2.57;;;2.40;;
4464;SDS011;2245;48.136;13.428;2022-07-06T14:10:48;3.50;;;3.20;;
4464;SDS011;2245;48.136;13.428;2022-07-06T14:13:15;4.37;;;3.20;;
4464;SDS011;2245;48.136;13.428;2022-07-06T14:15:42;4.30;;;3.20;;
4464;SDS011;2245;48.136;13.428;2022-07-06T14:18:10;5.27;;;2.77;;
4464;SDS011;2245;48.136;13.428;2022-07-06T14:20:38;13.33;;;3.17;;
4464;SDS011;2245;48.136;13.428;2022-07-06T14:23:05;3.37;;;2.97;;
4464;SDS011;2245;48.136;13.428;2022-07-06T14:25:31;2.50;;;2.40;;
4464;SDS011;2245;48.136;13.428;2022-07-06T14:27:58;7.03;;;3.20;;
4464;SDS011;2245;48.136;13.428;2022-07-06T14:30:27;3.47;;;2.40;;
4464;SDS011;2245;48.136;13.428;2022-07-06T14:32:54;2.80;;;2.60;;
4464;SDS011;2245;48.136;13.428;2022-07-06T14:35:22;2.67;;;2.40;;
4464;SDS011;2245;48.136;13.428;2022-07-06T14:37:50;9.00;;;4.47;;
4464;SDS011;2245;48.136;13.428;2022-07-06T14:40:17;3.43;;;2.60;;
4464;SDS011;2245;48.136;13.428;2022-07-06T14:42:44;3.70;;;2.50;;
4464;SDS011;2245;48.136;13.428;2022-07-06T14:45:11;4.27;;;3.00;;
4464;SDS011;2245;48.136;13.428;2022-07-06T14:47:38;3.63;;;3.00;;
4464;SDS011;2245;48.136;13.428;2022-07-06T14:50:05;4.87;;;2.90;;
4464;SDS011;2245;48.136;13.428;2022-07-06T14:52:34;2.80;;;2.60;;
4464;SDS011;2245;48.136;13.428;2022-07-06T14:55:01;5.77;;;2.80;;
4464;SDS011;2245;48.136;13.428;2022-07-06T14:57:28;3.33;;;2.70;;
4464;SDS011;2245;48.136;13.428;2022-07-06T14:59:55;5.40;;;2.73;;
4464;SDS011;2245;48.136;13.428;2022-07-06T15:02:22;8.13;;;3.00;;
4464;SDS011;2245;48.136;13.428;2022-07-06T15:04:49;2.90;;;2.70;;
4464;SDS011;2245;48.136;13.428;2022-07-06T15:07:16;3.57;;;3.27;;
4464;SDS011;2245;48.136;13.428;2022-07-06T15:09:44;4.33;;;2.60;;
4464;SDS011;2245;48.136;13.428;2022-07-06T15:12:11;3.07;;;2.70;;